sensor_id;sensor_type;location;lat;lon;timestamp;pressure;altitude;pressure_sealevel;temperature;humidity
61484;BME280;47349;55.640;37.692;2023-04-15T00:00:58;100343.31;;;1.85;30.37
61484;BME280;47349;55.640;37.692;2023-04-15T00:03:25;100341.00;;;1.80;30.35
61484;BME280;47349;55.640;37.692;2023-04-15T00:05:52;100335.69;;;1.80;30.06
61484;BME280;47349;55.640;37.692;2023-04-15T00:08:19;100348.16;;;1.78;30.47
61484;BME280;47349;55.640;37.692;2023-04-15T00:10:46;100361.06;;;1.83;30.22
61484;BME280;47349;55.640;37.692;2023-04-15T00:13:13;100355.03;;;1.80;30.23
61484;BME280;47349;55.640;37.692;2023-04-15T00:15:41;100361.28;;;1.79;30.29
61484;BME280;47349;55.640;37.692;2023-04-15T00:18:08;100360.22;;;1.69;30.72
61484;BME280;47349;55.640;37.692;2023-04-15T00:20:35;100370.78;;;1.69;30.45
61484;BME280;47349;55.640;37.692;2023-04-15T00:23:03;100368.44;;;1.65;30.70
61484;BME280;47349;55.640;37.692;2023-04-15T00:25:31;100371.69;;;1.68;30.68
61484;BME280;47349;55.640;37.692;2023-04-15T00:27:58;100373.50;;;1.68;30.31
61484;BME280;47349;55.640;37.692;2023-04-15T00:30:25;100374.47;;;1.67;30.12
61484;BME280;47349;55.640;37.692;2023-04-15T00:32:52;100380.53;;;1.54;30.06
61484;BME280;47349;55.640;37.692;2023-04-15T00:35:21;100375.91;;;1.45;30.68
61484;BME280;47349;55.640;37.692;2023-04-15T00:37:49;100380.88;;;1.50;31.17
61484;BME280;47349;55.640;37.692;2023-04-15T00:40:18;100374.53;;;1.52;30.79
61484;BME280;47349;55.640;37.692;2023-04-15T00:42:45;100390.38;;;1.52;30.59
61484;BME280;47349;55.640;37.692;2023-04-15T00:45:12;100397.56;;;1.50;31.25
61484;BME280;47349;55.640;37.692;2023-04-15T00:47:40;100393.25;;;1.35;30.53
61484;BME280;47349;55.640;37.692;2023-04-15T00:50:09;100396.78;;;1.36;31.04
61484;BME280;47349;55.640;37.692;2023-04-15T00:52:36;100415.63;;;1.29;31.17
61484;BME280;47349;55.640;37.692;2023-04-15T00:55:04;100403.63;;;1.38;31.45
61484;BME280;47349;55.640;37.692;2023-04-15T00:57:31;100414.34;;;1.22;31.09
61484;BME280;47349;55.640;37.692;2023-04-15T00:59:59;100406.22;;;1.25;31.90
61484;BME280;47349;55.640;37.692;2023-04-15T01:02:26;100415.00;;;1.26;31.24
61484;BME280;47349;55.640;37.692;2023-04-15T01:04:53;100430.09;;;1.24;32.16
61484;BME280;47349;55.640;37.692;2023-04-15T01:07:22;100427.44;;;1.24;31.20
61484;BME280;47349;55.640;37.692;2023-04-15T01:09:49;100421.78;;;1.16;31.89
61484;BME280;47349;55.640;37.692;2023-04-15T01:12:18;100421.72;;;1.17;31.62
61484;BME280;47349;55.640;37.692;2023-04-15T01:14:46;100430.88;;;1.12;31.77
61484;BME280;47349;55.640;37.692;2023-04-15T01:17:13;100435.94;;;1.15;32.02
61484;BME280;47349;55.640;37.692;2023-04-15T01:19:40;100438.78;;;1.12;31.68
61484;BME280;47349;55.640;37.692;2023-04-15T01:22:07;100435.50;;;1.08;31.87
61484;BME280;47349;55.640;37.692;2023-04-15T01:24:37;100439.16;;;1.06;31.63
61484;BME280;47349;55.640;37.692;2023-04-15T01:27:04;100443.25;;;0.97;31.25
61484;BME280;47349;55.640;37.692;2023-04-15T01:29:31;100429.19;;;0.96;31.82
61484;BME280;47349;55.640;37.692;2023-04-15T01:31:58;100441.53;;;0.96;31.83
61484;BME280;47349;55.640;37.692;2023-04-15T01:34:44;100441.75;;;0.93;31.49
61484;BME280;47349;55.640;37.692;2023-04-15T01:37:30;100456.63;;;0.94;32.13
61484;BME280;47349;55.640;37.692;2023-04-15T01:39:57;100452.94;;;0.96;32.79
61484;BME280;47349;55.640;37.692;2023-04-15T01:42:25;100466.69;;;1.01;33.14
61484;BME280;47349;55.640;37.692;2023-04-15T01:44:52;100450.50;;;0.93;32.50
61484;BME280;47349;55.640;37.692;2023-04-15T01:47:19;100455.50;;;0.98;32.92
61484;BME280;47349;55.640;37.692;2023-04-15T01:49:46;100456.44;;;0.97;32.81
61484;BME280;47349;55.640;37.692;2023-04-15T01:52:13;100461.72;;;0.97;32.65
61484;BME280;47349;55.640;37.692;2023-04-15T01:54:40;100460.41;;;0.90;32.46
61484;BME280;47349;55.640;37.692;2023-04-15T01:57:08;100467.38;;;0.91;32.90
61484;BME280;47349;55.640;37.692;2023-04-15T01:59:35;100471.34;;;0.84;32.20
61484;BME280;47349;55.640;37.692;2023-04-15T02:02:03;100474.66;;;0.87;33.38
61484;BME280;47349;55.640;37.692;2023-04-15T02:04:30;100471.13;;;0.87;32.42
61484;BME280;47349;55.640;37.692;2023-04-15T02:06:58;100482.06;;;0.81;32.27
61484;BME280;47349;55.640;37.692;2023-04-15T02:09:26;100482.56;;;0.87;32.50
61484;BME280;47349;55.640;37.692;2023-04-15T02:11:53;100482.06;;;0.81;32.48
61484;BME280;47349;55.640;37.692;2023-04-15T02:14:20;100489.88;;;0.82;32.77
61484;BME280;47349;55.640;37.692;2023-04-15T02:16:47;100491.78;;;0.80;32.55
61484;BME280;47349;55.640;37.692;2023-04-15T02:19:14;100497.06;;;0.80;32.83
61484;BME280;47349;55.640;37.692;2023-04-15T02:21:41;100494.03;;;0.86;33.18
61484;BME280;47349;55.640;37.692;2023-04-15T02:24:08;100497.06;;;0.80;32.91
61484;BME280;47349;55.640;37.692;2023-04-15T02:26:35;100498.97;;;0.78;32.96
61484;BME280;47349;55.640;37.692;2023-04-15T02:29:02;100492.16;;;0.74;32.71
61484;BME280;47349;55.640;37.692;2023-04-15T02:31:29;100496.59;;;0.73;32.81
61484;BME280;47349;55.640;37.692;2023-04-15T02:33:57;100499.00;;;0.62;32.40
61484;BME280;47349;55.640;37.692;2023-04-15T02:36:24;100508.06;;;0.72;32.90
61484;BME280;47349;55.640;37.692;2023-04-15T02:38:52;100516.84;;;0.73;33.11
61484;BME280;47349;55.640;37.692;2023-04-15T02:41:19;100517.97;;;0.69;32.64
61484;BME280;47349;55.640;37.692;2023-04-15T02:43:48;100525.41;;;0.76;33.23
61484;BME280;47349;55.640;37.692;2023-04-15T02:46:15;100527.31;;;0.74;33.20
61484;BME280;47349;55.640;37.692;2023-04-15T02:48:43;100532.31;;;0.79;33.24
61484;BME280;47349;55.640;37.692;2023-04-15T02:51:11;100541.34;;;0.75;32.67
61484;BME280;47349;55.640;37.692;2023-04-15T02:53:38;100536.75;;;0.79;33.36
61484;BME280;47349;55.640;37.692;2023-04-15T02:56:04;100530.78;;;0.75;32.65
61484;BME280;47349;55.640;37.692;2023-04-15T02:58:32;100543.53;;;0.83;32.53
61484;BME280;47349;55.640;37.692;2023-04-15T03:01:00;100539.94;;;0.84;32.50
61484;BME280;47349;55.640;37.692;2023-04-15T03:03:27;100544.94;;;0.74;32.48
61484;BME280;47349;55.640;37.692;2023-04-15T03:05:54;100551.22;;;0.71;33.37
61484;BME280;47349;55.640;37.692;2023-04-15T03:08:21;100551.91;;;0.75;33.63
61484;BME280;47349;55.640;37.692;2023-04-15T03:10:48;100551.53;;;0.81;34.07
61484;BME280;47349;55.640;37.692;2023-04-15T03:13:18;100552.88;;;0.88;33.06
61484;BME280;47349;55.640;37.692;2023-04-15T03:15:46;100553.72;;;0.89;33.31
61484;BME280;47349;55.640;37.692;2023-04-15T03:18:13;100554.56;;;0.89;32.78
61484;BME280;47349;55.640;37.692;2023-04-15T03:20:40;100549.28;;;0.89;33.37
61484;BME280;47349;55.640;37.692;2023-04-15T03:23:07;100559.53;;;0.80;33.45
61484;BME280;47349;55.640;37.692;2023-04-15T03:25:34;100552.56;;;0.79;32.89
61484;BME280;47349;55.640;37.692;2023-04-15T03:28:05;100563.59;;;0.85;33.45
61484;BME280;47349;55.640;37.692;2023-04-15T03:30:32;100569.03;;;0.82;33.65
61484;BME280;47349;55.640;37.692;2023-04-15T03:32:59;100556.25;;;0.90;33.73
61484;BME280;47349;55.640;37.692;2023-04-15T03:35:26;100559.66;;;0.92;33.98
61484;BME280;47349;55.640;37.692;2023-04-15T03:37:53;100557.75;;;0.94;32.91
61484;BME280;47349;55.640;37.692;2023-04-15T03:40:20;100569.16;;;0.95;33.79
61484;BME280;47349;55.640;37.692;2023-04-15T03:42:47;100569.84;;;0.98;33.65
61484;BME280;47349;55.640;37.692;2023-04-15T03:45:13;100574.00;;;1.02;33.32
61484;BME280;47349;55.640;37.692;2023-04-15T03:47:41;100574.75;;;1.05;32.75
61484;BME280;47349;55.640;37.692;2023-04-15T03:50:08;100582.66;;;1.05;33.41
61484;BME280;47349;55.640;37.692;2023-04-15T03:52:35;100583.59;;;1.03;33.66
61484;BME280;47349;55.640;37.692;2023-04-15T03:55:02;100582.09;;;0.99;33.24
61484;BME280;47349;55.640;37.692;2023-04-15T03:57:29;100578.44;;;1.02;33.67
61484;BME280;47349;55.640;37.692;2023-04-15T03:59:56;100594.00;;;1.07;33.40
61484;BME280;47349;55.640;37.692;2023-04-15T04:02:23;100591.16;;;1.10;33.44
61484;BME280;47349;55.640;37.692;2023-04-15T04:04:51;100591.66;;;1.16;33.20
61484;BME280;47349;55.640;37.692;2023-04-15T04:07:18;100596.63;;;1.21;33.74
61484;BME280;47349;55.640;37.692;2023-04-15T04:09:45;100594.47;;;1.27;33.27
61484;BME280;47349;55.640;37.692;2023-04-15T04:12:13;100600.69;;;1.26;32.83
61484;BME280;47349;55.640;37.692;2023-04-15T04:14:40;100593.69;;;1.25;32.61
61484;BME280;47349;55.640;37.692;2023-04-15T04:17:07;100604.25;;;1.25;33.14
61484;BME280;47349;55.640;37.692;2023-04-15T04:19:34;100600.50;;;1.29;33.70
61484;BME280;47349;55.640;37.692;2023-04-15T04:22:01;100593.34;;;1.32;32.60
61484;BME280;47349;55.640;37.692;2023-04-15T04:24:28;100598.13;;;1.25;32.58
61484;BME280;47349;55.640;37.692;2023-04-15T04:26:55;100600.22;;;1.34;33.67
61484;BME280;47349;55.640;37.692;2023-04-15T04:29:22;100605.88;;;1.42;33.02
61484;BME280;47349;55.640;37.692;2023-04-15T04:31:49;100612.47;;;1.49;33.10
61484;BME280;47349;55.640;37.692;2023-04-15T04:34:16;100609.09;;;1.47;33.35
61484;BME280;47349;55.640;37.692;2023-04-15T04:36:43;100612.38;;;1.65;32.91
61484;BME280;47349;55.640;37.692;2023-04-15T04:39:10;100608.69;;;1.68;33.16
61484;BME280;47349;55.640;37.692;2023-04-15T04:41:37;100615.19;;;1.76;32.73
61484;BME280;47349;55.640;37.692;2023-04-15T04:44:04;100608.88;;;1.79;32.39
61484;BME280;47349;55.640;37.692;2023-04-15T04:46:31;100613.09;;;1.82;32.57
61484;BME280;47349;55.640;37.692;2023-04-15T04:48:58;100616.28;;;1.87;32.39
61484;BME280;47349;55.640;37.692;2023-04-15T04:51:33;100609.97;;;1.89;32.40
61484;BME280;47349;55.640;37.692;2023-04-15T04:54:03;100608.81;;;1.93;32.11
61484;BME280;47349;55.640;37.692;2023-04-15T04:56:30;100611.28;;;1.96;32.08
61484;BME280;47349;55.640;37.692;2023-04-15T04:58:57;100617.16;;;1.87;31.53
61484;BME280;47349;55.640;37.692;2023-04-15T05:01:24;100612.06;;;1.84;31.71
61484;BME280;47349;55.640;37.692;2023-04-15T05:03:53;100620.91;;;1.83;31.57
61484;BME280;47349;55.640;37.692;2023-04-15T05:06:20;100617.72;;;1.78;31.59
61484;BME280;47349;55.640;37.692;2023-04-15T05:08:47;100618.50;;;1.80;32.21
61484;BME280;47349;55.640;37.692;2023-04-15T05:11:14;100618.00;;;1.88;32.34
61484;BME280;47349;55.640;37.692;2023-04-15T05:13:41;100629.81;;;1.82;31.83
61484;BME280;47349;55.640;37.692;2023-04-15T05:16:08;100630.19;;;1.90;32.31
61484;BME280;47349;55.640;37.692;2023-04-15T05:18:35;100626.28;;;1.96;32.24
61484;BME280;47349;55.640;37.692;2023-04-15T05:21:02;100627.28;;;2.08;32.38
61484;BME280;47349;55.640;37.692;2023-04-15T05:23:29;100626.94;;;1.99;31.73
61484;BME280;47349;55.640;37.692;2023-04-15T05:25:56;100627.91;;;1.98;32.07
61484;BME280;47349;55.640;37.692;2023-04-15T05:28:23;100627.81;;;1.86;31.47
61484;BME280;47349;55.640;37.692;2023-04-15T05:30:50;100640.75;;;1.90;30.83
61484;BME280;47349;55.640;37.692;2023-04-15T05:33:17;100627.25;;;1.80;30.81
61484;BME280;47349;55.640;37.692;2023-04-15T05:35:44;100644.34;;;1.89;30.97
61484;BME280;47349;55.640;37.692;2023-04-15T05:38:11;100642.25;;;1.94;30.78
61484;BME280;47349;55.640;37.692;2023-04-15T05:40:38;100639.22;;;2.00;30.70
61484;BME280;47349;55.640;37.692;2023-04-15T05:43:05;100644.03;;;2.08;30.80
61484;BME280;47349;55.640;37.692;2023-04-15T05:45:32;100637.66;;;2.25;30.82
61484;BME280;47349;55.640;37.692;2023-04-15T05:47:59;100632.34;;;2.25;30.79
61484;BME280;47349;55.640;37.692;2023-04-15T05:50:26;100640.88;;;2.16;31.29
61484;BME280;47349;55.640;37.692;2023-04-15T05:52:53;100643.41;;;2.17;30.73
61484;BME280;47349;55.640;37.692;2023-04-15T05:55:21;100648.22;;;2.25;30.45
61484;BME280;47349;55.640;37.692;2023-04-15T05:57:48;100642.94;;;2.25;30.75
61484;BME280;47349;55.640;37.692;2023-04-15T06:00:15;100649.75;;;2.42;30.83
61484;BME280;47349;55.640;37.692;2023-04-15T06:02:42;100658.72;;;2.53;30.62
61484;BME280;47349;55.640;37.692;2023-04-15T06:05:09;100651.69;;;2.67;30.72
61484;BME280;47349;55.640;37.692;2023-04-15T06:07:37;100643.25;;;2.87;30.57
61484;BME280;47349;55.640;37.692;2023-04-15T06:10:04;100648.03;;;3.07;30.66
61484;BME280;47349;55.640;37.692;2023-04-15T06:12:31;100649.34;;;3.15;30.99
61484;BME280;47349;55.640;37.692;2023-04-15T06:14:58;100650.16;;;3.28;30.50
61484;BME280;47349;55.640;37.692;2023-04-15T06:17:26;100645.28;;;3.47;29.85
61484;BME280;47349;55.640;37.692;2023-04-15T06:25:58;100647.09;;;3.47;29.82
61484;BME280;47349;55.640;37.692;2023-04-15T06:28:25;100649.75;;;3.47;30.58
61484;BME280;47349;55.640;37.692;2023-04-15T06:30:52;100649.22;;;3.54;29.86
61484;BME280;47349;55.640;37.692;2023-04-15T06:33:19;100653.13;;;3.61;29.95
61484;BME280;47349;55.640;37.692;2023-04-15T06:35:46;100654.63;;;3.66;29.36
61484;BME280;47349;55.640;37.692;2023-04-15T06:38:15;100655.25;;;3.69;29.44
61484;BME280;47349;55.640;37.692;2023-04-15T06:40:42;100651.56;;;3.59;29.27
61484;BME280;47349;55.640;37.692;2023-04-15T06:43:09;100663.09;;;3.32;30.14
61484;BME280;47349;55.640;37.692;2023-04-15T06:45:35;100665.41;;;3.63;29.92
61484;BME280;47349;55.640;37.692;2023-04-15T06:48:03;100651.00;;;3.67;28.75
61484;BME280;47349;55.640;37.692;2023-04-15T06:50:30;100653.38;;;3.58;28.67
61484;BME280;47349;55.640;37.692;2023-04-15T06:52:57;100664.81;;;3.59;29.23
61484;BME280;47349;55.640;37.692;2023-04-15T06:55:24;100666.41;;;3.36;29.13
61484;BME280;47349;55.640;37.692;2023-04-15T06:57:51;100654.63;;;3.15;29.30
61484;BME280;47349;55.640;37.692;2023-04-15T07:00:18;100659.72;;;3.30;28.59
61484;BME280;47349;55.640;37.692;2023-04-15T07:02:45;100664.16;;;3.43;28.70
61484;BME280;47349;55.640;37.692;2023-04-15T07:05:13;100660.38;;;3.34;28.53
61484;BME280;47349;55.640;37.692;2023-04-15T07:07:39;100658.88;;;3.55;28.43
61484;BME280;47349;55.640;37.692;2023-04-15T07:10:07;100661.81;;;3.76;28.30
61484;BME280;47349;55.640;37.692;2023-04-15T07:12:34;100671.16;;;3.56;28.15
61484;BME280;47349;55.640;37.692;2023-04-15T07:15:01;100667.53;;;3.70;28.45
61484;BME280;47349;55.640;37.692;2023-04-15T07:17:29;100663.59;;;3.89;27.63
61484;BME280;47349;55.640;37.692;2023-04-15T07:19:56;100661.78;;;4.02;28.38
61484;BME280;47349;55.640;37.692;2023-04-15T07:22:23;100655.47;;;4.16;27.82
61484;BME280;47349;55.640;37.692;2023-04-15T07:24:50;100659.97;;;4.02;28.35
61484;BME280;47349;55.640;37.692;2023-04-15T07:27:17;100657.19;;;4.17;28.13
61484;BME280;47349;55.640;37.692;2023-04-15T07:29:44;100653.63;;;4.29;28.08
61484;BME280;47349;55.640;37.692;2023-04-15T07:32:11;100657.19;;;4.17;27.32
61484;BME280;47349;55.640;37.692;2023-04-15T07:34:38;100654.41;;;4.18;27.46
61484;BME280;47349;55.640;37.692;2023-04-15T07:37:04;100654.94;;;4.47;27.14
61484;BME280;47349;55.640;37.692;2023-04-15T07:39:31;100647.75;;;4.60;26.28
61484;BME280;47349;55.640;37.692;2023-04-15T07:41:58;100646.47;;;4.66;25.95
61484;BME280;47349;55.640;37.692;2023-04-15T07:44:26;100641.94;;;4.79;26.22
61484;BME280;47349;55.640;37.692;2023-04-15T07:46:53;100644.00;;;4.87;25.50
61484;BME280;47349;55.640;37.692;2023-04-15T07:49:20;100640.66;;;5.07;25.21
61484;BME280;47349;55.640;37.692;2023-04-15T07:51:47;100647.06;;;5.05;26.27
61484;BME280;47349;55.640;37.692;2023-04-15T07:54:14;100652.59;;;4.90;26.01
61484;BME280;47349;55.640;37.692;2023-04-15T07:56:41;100645.97;;;5.07;26.99
61484;BME280;47349;55.640;37.692;2023-04-15T07:59:08;100645.72;;;4.99;26.62
61484;BME280;47349;55.640;37.692;2023-04-15T08:01:36;100646.13;;;4.71;25.51
61484;BME280;47349;55.640;37.692;2023-04-15T08:04:03;100644.84;;;4.63;25.93
61484;BME280;47349;55.640;37.692;2023-04-15T08:06:30;100643.34;;;4.48;25.54
61484;BME280;47349;55.640;37.692;2023-04-15T08:08:57;100658.47;;;4.59;27.02
61484;BME280;47349;55.640;37.692;2023-04-15T08:11:24;100660.22;;;4.95;26.19
61484;BME280;47349;55.640;37.692;2023-04-15T08:13:51;100653.66;;;4.88;25.42
61484;BME280;47349;55.640;37.692;2023-04-15T08:16:19;100650.75;;;4.80;26.13
61484;BME280;47349;55.640;37.692;2023-04-15T08:18:47;100654.78;;;4.73;25.55
61484;BME280;47349;55.640;37.692;2023-04-15T08:21:15;100659.84;;;4.64;25.53
61484;BME280;47349;55.640;37.692;2023-04-15T08:23:42;100655.81;;;4.59;25.61
61484;BME280;47349;55.640;37.692;2023-04-15T08:26:09;100651.72;;;4.79;25.80
61484;BME280;47349;55.640;37.692;2023-04-15T08:28:39;100656.09;;;4.91;25.38
61484;BME280;47349;55.640;37.692;2023-04-15T08:31:07;100631.47;;;4.89;25.18
61484;BME280;47349;55.640;37.692;2023-04-15T08:33:35;100647.28;;;5.02;26.80
61484;BME280;47349;55.640;37.692;2023-04-15T08:36:02;100654.75;;;5.43;25.95
61484;BME280;47349;55.640;37.692;2023-04-15T08:38:30;100647.00;;;5.40;25.17
61484;BME280;47349;55.640;37.692;2023-04-15T08:41:19;100648.28;;;5.12;24.63
61484;BME280;47349;55.640;37.692;2023-04-15T08:43:50;100641.13;;;4.90;25.23
61484;BME280;47349;55.640;37.692;2023-04-15T08:46:20;100636.38;;;4.82;24.78
61484;BME280;47349;55.640;37.692;2023-04-15T08:48:47;100638.06;;;4.83;25.81
61484;BME280;47349;55.640;37.692;2023-04-15T08:51:16;100641.91;;;5.14;25.54
61484;BME280;47349;55.640;37.692;2023-04-15T08:53:43;100636.50;;;5.50;24.95
61484;BME280;47349;55.640;37.692;2023-04-15T08:56:12;100639.53;;;5.79;25.59
61484;BME280;47349;55.640;37.692;2023-04-15T08:58:40;100639.66;;;5.77;24.20
61484;BME280;47349;55.640;37.692;2023-04-15T09:01:07;100634.06;;;5.35;24.12
61484;BME280;47349;55.640;37.692;2023-04-15T09:03:34;100638.41;;;5.25;23.53
61484;BME280;47349;55.640;37.692;2023-04-15T09:06:02;100625.66;;;5.53;26.16
61484;BME280;47349;55.640;37.692;2023-04-15T09:08:29;100632.16;;;5.82;24.75
61484;BME280;47349;55.640;37.692;2023-04-15T09:10:57;100629.63;;;6.14;24.31
61484;BME280;47349;55.640;37.692;2023-04-15T09:13:24;100628.88;;;6.12;23.10
61484;BME280;47349;55.640;37.692;2023-04-15T09:15:51;100622.72;;;5.89;23.60
61484;BME280;47349;55.640;37.692;2023-04-15T09:18:29;100627.44;;;6.20;24.09
61484;BME280;47349;55.640;37.692;2023-04-15T09:21:03;100629.78;;;6.45;23.88
61484;BME280;47349;55.640;37.692;2023-04-15T09:23:31;100629.94;;;6.64;22.37
61484;BME280;47349;55.640;37.692;2023-04-15T09:25:58;100623.44;;;6.57;23.21
61484;BME280;47349;55.640;37.692;2023-04-15T09:28:27;100628.84;;;6.67;23.07
61484;BME280;47349;55.640;37.692;2023-04-15T09:30:54;100621.25;;;6.62;22.32
61484;BME280;47349;55.640;37.692;2023-04-15T09:33:22;100619.00;;;6.79;23.00
61484;BME280;47349;55.640;37.692;2023-04-15T09:36:04;100621.13;;;6.85;23.84
61484;BME280;47349;55.640;37.692;2023-04-15T09:38:31;100629.72;;;7.09;22.59
61484;BME280;47349;55.640;37.692;2023-04-15T09:40:58;100619.91;;;7.10;22.57
61484;BME280;47349;55.640;37.692;2023-04-15T09:43:38;100625.34;;;7.29;23.54
61484;BME280;47349;55.640;37.692;2023-04-15T09:46:05;100607.47;;;7.41;22.44
61484;BME280;47349;55.640;37.692;2023-04-15T09:48:32;100623.78;;;7.47;21.82
61484;BME280;47349;55.640;37.692;2023-04-15T09:51:00;100617.94;;;7.63;22.10
61484;BME280;47349;55.640;37.692;2023-04-15T09:53:27;100616.25;;;7.62;22.59
61484;BME280;47349;55.640;37.692;2023-04-15T09:55:58;100615.47;;;7.71;23.49
61484;BME280;47349;55.640;37.692;2023-04-15T09:58:29;100618.91;;;7.83;22.67
61484;BME280;47349;55.640;37.692;2023-04-15T10:00:56;100616.13;;;7.94;21.97
61484;BME280;47349;55.640;37.692;2023-04-15T10:03:28;100616.78;;;7.87;21.38
61484;BME280;47349;55.640;37.692;2023-04-15T10:05:57;100620.88;;;7.91;21.52
61484;BME280;47349;55.640;37.692;2023-04-15T10:08:27;100622.56;;;7.92;21.85
61484;BME280;47349;55.640;37.692;2023-04-15T10:10:55;100611.34;;;7.98;21.98
61484;BME280;47349;55.640;37.692;2023-04-15T10:13:22;100614.50;;;8.22;22.08
61484;BME280;47349;55.640;37.692;2023-04-15T10:15:51;100614.63;;;8.31;22.03
61484;BME280;47349;55.640;37.692;2023-04-15T10:18:20;100616.81;;;8.37;21.43
61484;BME280;47349;55.640;37.692;2023-04-15T10:21:07;100613.38;;;8.35;21.18
61484;BME280;47349;55.640;37.692;2023-04-15T10:23:34;100610.91;;;8.43;21.45
61484;BME280;47349;55.640;37.692;2023-04-15T10:26:01;100611.75;;;8.53;21.41
61484;BME280;47349;55.640;37.692;2023-04-15T10:28:29;100609.22;;;8.42;20.66
61484;BME280;47349;55.640;37.692;2023-04-15T10:30:56;100611.66;;;8.14;20.27
61484;BME280;47349;55.640;37.692;2023-04-15T10:33:24;100617.59;;;8.28;21.59
61484;BME280;47349;55.640;37.692;2023-04-15T10:35:53;100613.72;;;8.41;21.53
61484;BME280;47349;55.640;37.692;2023-04-15T10:41:13;100606.06;;;8.27;19.87
61484;BME280;47349;55.640;37.692;2023-04-15T10:43:55;100600.72;;;8.17;20.79
61484;BME280;47349;55.640;37.692;2023-04-15T10:46:33;100600.91;;;8.45;20.95
61484;BME280;47349;55.640;37.692;2023-04-15T10:49:06;100601.63;;;8.66;20.51
61484;BME280;47349;55.640;37.692;2023-04-15T10:51:34;100597.53;;;8.82;21.13
61484;BME280;47349;55.640;37.692;2023-04-15T10:54:03;100604.41;;;8.94;21.09
61484;BME280;47349;55.640;37.692;2023-04-15T10:56:34;100601.31;;;8.98;20.89
61484;BME280;47349;55.640;37.692;2023-04-15T10:59:01;100601.56;;;9.15;20.86
61484;BME280;47349;55.640;37.692;2023-04-15T11:01:53;100601.31;;;8.98;20.46
61484;BME280;47349;55.640;37.692;2023-04-15T11:07:08;100593.19;;;8.81;19.53
61484;BME280;47349;55.640;37.692;2023-04-15T11:09:35;100593.63;;;8.66;20.15
61484;BME280;47349;55.640;37.692;2023-04-15T11:12:09;100599.06;;;8.55;19.99
61484;BME280;47349;55.640;37.692;2023-04-15T11:14:39;100593.19;;;8.81;21.35
61484;BME280;47349;55.640;37.692;2023-04-15T11:17:07;100594.56;;;8.65;19.92
61484;BME280;47349;55.640;37.692;2023-04-15T11:19:35;100576.03;;;8.54;19.93
61484;BME280;47349;55.640;37.692;2023-04-15T11:25:05;100595.09;;;9.08;20.21
61484;BME280;47349;55.640;37.692;2023-04-15T11:27:32;100591.44;;;9.09;19.95
61484;BME280;47349;55.640;37.692;2023-04-15T11:29:59;100585.28;;;8.79;19.58
61484;BME280;47349;55.640;37.692;2023-04-15T11:32:44;100584.72;;;9.05;19.53
61484;BME280;47349;55.640;37.692;2023-04-15T11:35:11;100576.75;;;9.22;19.98
61484;BME280;47349;55.640;37.692;2023-04-15T11:37:38;100585.19;;;9.27;20.41
61484;BME280;47349;55.640;37.692;2023-04-15T11:40:25;100576.09;;;9.85;20.46
61484;BME280;47349;55.640;37.692;2023-04-15T11:43:05;100579.66;;;10.31;20.26
61484;BME280;47349;55.640;37.692;2023-04-15T11:45:32;100580.81;;;10.64;19.43
61484;BME280;47349;55.640;37.692;2023-04-15T11:48:04;100573.34;;;10.76;18.94
61484;BME280;47349;55.640;37.692;2023-04-15T11:50:32;100562.66;;;11.02;19.38
61484;BME280;47349;55.640;37.692;2023-04-15T11:52:59;100563.78;;;11.17;18.28
61484;BME280;47349;55.640;37.692;2023-04-15T11:55:46;100562.75;;;10.31;19.20
61484;BME280;47349;55.640;37.692;2023-04-15T11:58:33;100567.84;;;10.24;19.30
61484;BME280;47349;55.640;37.692;2023-04-15T12:01:00;100560.16;;;10.82;19.17
61484;BME280;47349;55.640;37.692;2023-04-15T12:03:37;100547.19;;;10.52;18.51
61484;BME280;47349;55.640;37.692;2023-04-15T12:09:19;100561.34;;;11.06;19.01
61484;BME280;47349;55.640;37.692;2023-04-15T12:11:44;100542.56;;;11.32;19.06
61484;BME280;47349;55.640;37.692;2023-04-15T12:14:09;100553.44;;;11.65;18.65
61484;BME280;47349;55.640;37.692;2023-04-15T12:19:42;100554.91;;;11.25;19.00
61484;BME280;47349;55.640;37.692;2023-04-15T12:22:11;100548.13;;;11.39;18.30
61484;BME280;47349;55.640;37.692;2023-04-15T12:27:30;100544.13;;;11.17;18.84
61484;BME280;47349;55.640;37.692;2023-04-15T12:30:03;100554.19;;;10.89;18.52
61484;BME280;47349;55.640;37.692;2023-04-15T12:32:33;100549.75;;;10.79;20.11
61484;BME280;47349;55.640;37.692;2023-04-15T12:35:01;100549.00;;;11.13;20.17
61484;BME280;47349;55.640;37.692;2023-04-15T12:37:28;100546.16;;;11.49;19.86
61484;BME280;47349;55.640;37.692;2023-04-15T12:39:54;100545.94;;;11.76;18.87
61484;BME280;47349;55.640;37.692;2023-04-15T12:42:21;100548.28;;;11.79;19.83
61484;BME280;47349;55.640;37.692;2023-04-15T12:44:48;100544.50;;;11.82;18.80
61484;BME280;47349;55.640;37.692;2023-04-15T12:47:15;100545.84;;;11.86;18.73
61484;BME280;47349;55.640;37.692;2023-04-15T12:52:28;100552.63;;;12.06;18.12
61484;BME280;47349;55.640;37.692;2023-04-15T12:54:55;100539.00;;;12.08;19.16
61484;BME280;47349;55.640;37.692;2023-04-15T12:57:22;100548.44;;;12.12;18.61
61484;BME280;47349;55.640;37.692;2023-04-15T12:59:49;100539.00;;;12.08;18.96
61484;BME280;47349;55.640;37.692;2023-04-15T13:02:16;100533.63;;;12.08;19.17
61484;BME280;47349;55.640;37.692;2023-04-15T13:04:43;100537.50;;;12.05;19.47
61484;BME280;47349;55.640;37.692;2023-04-15T13:07:10;100532.25;;;11.88;19.17
61484;BME280;47349;55.640;37.692;2023-04-15T13:09:39;100540.50;;;12.02;18.37
61484;BME280;47349;55.640;37.692;2023-04-15T13:12:43;100539.94;;;11.82;19.29
61484;BME280;47349;55.640;37.692;2023-04-15T13:15:12;100542.31;;;11.86;19.40
61484;BME280;47349;55.640;37.692;2023-04-15T13:17:39;100541.00;;;11.90;19.68
61484;BME280;47349;55.640;37.692;2023-04-15T13:20:06;100542.84;;;11.97;19.29